sensor_id;sensor_type;location;lat;lon;timestamp;pressure;altitude;pressure_sealevel;temperature;humidity
18527;BME280;9393;42.158;24.748;2023-08-17T00:02:24;99507.81;;;27.40;50.19
18527;BME280;9393;42.158;24.748;2023-08-17T00:05:29;99505.53;;;27.27;50.13
18527;BME280;9393;42.158;24.748;2023-08-17T00:08:35;99502.84;;;27.05;50.68
18527;BME280;9393;42.158;24.748;2023-08-17T00:11:41;99507.44;;;26.88;51.29
18527;BME280;9393;42.158;24.748;2023-08-17T00:14:55;99510.16;;;26.71;51.80
18527;BME280;9393;42.158;24.748;2023-08-17T00:17:59;99509.94;;;26.94;51.40
18527;BME280;9393;42.158;24.748;2023-08-17T00:21:03;99506.47;;;26.77;52.17
18527;BME280;9393;42.158;24.748;2023-08-17T00:24:08;99505.72;;;26.60;52.58
18527;BME280;9393;42.158;24.748;2023-08-17T00:27:12;99505.13;;;26.75;52.38
18527;BME280;9393;42.158;24.748;2023-08-17T00:30:28;99504.28;;;26.36;53.33
18527;BME280;9393;42.158;24.748;2023-08-17T00:33:35;99503.50;;;26.19;54.07
18527;BME280;9393;42.158;24.748;2023-08-17T00:36:42;99500.09;;;26.23;54.02
18527;BME280;9393;42.158;24.748;2023-08-17T00:40:03;99494.44;;;26.20;54.65
18527;BME280;9393;42.158;24.748;2023-08-17T00:43:08;99502.69;;;26.18;55.00
18527;BME280;9393;42.158;24.748;2023-08-17T00:46:14;99502.25;;;26.09;55.31
18527;BME280;9393;42.158;24.748;2023-08-17T00:49:18;99503.16;;;26.32;54.96
18527;BME280;9393;42.158;24.748;2023-08-17T00:52:23;99496.75;;;26.33;54.85
18527;BME280;9393;42.158;24.748;2023-08-17T00:55:27;99506.06;;;26.47;54.60
18527;BME280;9393;42.158;24.748;2023-08-17T00:58:32;99503.44;;;26.52;54.45
18527;BME280;9393;42.158;24.748;2023-08-17T01:01:38;99511.22;;;26.53;54.73
18527;BME280;9393;42.158;24.748;2023-08-17T01:04:42;99511.69;;;26.67;54.39
18527;BME280;9393;42.158;24.748;2023-08-17T01:07:46;99518.44;;;26.53;54.89
18527;BME280;9393;42.158;24.748;2023-08-17T01:10:58;99521.06;;;26.31;55.70
18527;BME280;9393;42.158;24.748;2023-08-17T01:14:07;99515.31;;;26.39;55.49
18527;BME280;9393;42.158;24.748;2023-08-17T01:17:20;99513.50;;;26.61;54.86
18527;BME280;9393;42.158;24.748;2023-08-17T01:20:26;99510.56;;;26.63;54.48
18527;BME280;9393;42.158;24.748;2023-08-17T01:23:32;99501.66;;;26.57;54.54
18527;BME280;9393;42.158;24.748;2023-08-17T01:26:36;99508.47;;;26.65;54.30
18527;BME280;9393;42.158;24.748;2023-08-17T01:29:42;99504.72;;;26.66;54.29
18527;BME280;9393;42.158;24.748;2023-08-17T01:33:00;99501.94;;;26.23;55.73
18527;BME280;9393;42.158;24.748;2023-08-17T01:36:12;99509.53;;;26.31;55.74
18527;BME280;9393;42.158;24.748;2023-08-17T01:39:23;99511.47;;;26.52;55.06
18527;BME280;9393;42.158;24.748;2023-08-17T01:42:29;99515.59;;;26.59;54.66
18527;BME280;9393;42.158;24.748;2023-08-17T01:45:39;99511.09;;;26.43;55.12
18527;BME280;9393;42.158;24.748;2023-08-17T01:48:43;99504.53;;;26.18;55.93
18527;BME280;9393;42.158;24.748;2023-08-17T01:51:47;99499.59;;;26.43;54.87
18527;BME280;9393;42.158;24.748;2023-08-17T01:54:53;99502.63;;;26.51;54.94
18527;BME280;9393;42.158;24.748;2023-08-17T01:57:57;99503.56;;;26.40;55.28
18527;BME280;9393;42.158;24.748;2023-08-17T02:01:02;99503.66;;;26.29;55.48
18527;BME280;9393;42.158;24.748;2023-08-17T02:04:06;99495.69;;;26.17;55.65
18527;BME280;9393;42.158;24.748;2023-08-17T02:07:10;99497.63;;;26.05;56.06
18527;BME280;9393;42.158;24.748;2023-08-17T02:10:19;99489.66;;;25.60;57.34
18527;BME280;9393;42.158;24.748;2023-08-17T02:13:26;99502.00;;;25.78;57.20
18527;BME280;9393;42.158;24.748;2023-08-17T02:16:37;99503.13;;;25.65;57.69
18527;BME280;9393;42.158;24.748;2023-08-17T02:19:41;99496.78;;;25.54;57.87
18527;BME280;9393;42.158;24.748;2023-08-17T02:22:46;99491.75;;;25.58;58.46
18527;BME280;9393;42.158;24.748;2023-08-17T02:25:53;99496.44;;;25.51;58.70
18527;BME280;9393;42.158;24.748;2023-08-17T02:29:00;99498.16;;;25.45;59.04
18527;BME280;9393;42.158;24.748;2023-08-17T02:32:04;99488.06;;;25.47;58.98
18527;BME280;9393;42.158;24.748;2023-08-17T02:35:09;99499.47;;;25.43;59.41
18527;BME280;9393;42.158;24.748;2023-08-17T02:38:13;99495.59;;;25.22;60.03
18527;BME280;9393;42.158;24.748;2023-08-17T02:41:19;99490.56;;;25.37;59.74
18527;BME280;9393;42.158;24.748;2023-08-17T02:44:24;99496.22;;;25.41;59.42
18527;BME280;9393;42.158;24.748;2023-08-17T02:47:30;99494.59;;;25.40;59.53
18527;BME280;9393;42.158;24.748;2023-08-17T02:50:34;99487.38;;;25.24;59.70
18527;BME280;9393;42.158;24.748;2023-08-17T02:53:38;99488.16;;;25.24;59.27
18527;BME280;9393;42.158;24.748;2023-08-17T02:56:46;99483.72;;;25.30;59.09
18527;BME280;9393;42.158;24.748;2023-08-17T02:59:50;99492.59;;;25.19;58.43
18527;BME280;9393;42.158;24.748;2023-08-17T03:02:54;99501.16;;;25.21;58.30
18527;BME280;9393;42.158;24.748;2023-08-17T03:06:01;99501.09;;;25.04;58.41
18527;BME280;9393;42.158;24.748;2023-08-17T03:09:06;99495.22;;;25.30;57.07
18527;BME280;9393;42.158;24.748;2023-08-17T03:12:12;99494.81;;;25.38;56.87
18527;BME280;9393;42.158;24.748;2023-08-17T03:15:16;99497.16;;;25.35;56.64
18527;BME280;9393;42.158;24.748;2023-08-17T03:18:21;99496.22;;;25.41;56.46
18527;BME280;9393;42.158;24.748;2023-08-17T03:21:25;99496.25;;;25.29;56.43
18527;BME280;9393;42.158;24.748;2023-08-17T03:24:29;99492.63;;;25.35;56.28
18527;BME280;9393;42.158;24.748;2023-08-17T03:27:35;99496.69;;;25.38;55.11
18527;BME280;9393;42.158;24.748;2023-08-17T03:30:39;99501.09;;;25.04;55.10
18527;BME280;9393;42.158;24.748;2023-08-17T03:33:45;99500.28;;;25.03;54.56
18527;BME280;9393;42.158;24.748;2023-08-17T03:36:50;99503.91;;;24.97;54.92
18527;BME280;9393;42.158;24.748;2023-08-17T03:39:56;99503.78;;;24.69;55.29
18527;BME280;9393;42.158;24.748;2023-08-17T03:43:09;99506.78;;;25.07;54.35
18527;BME280;9393;42.158;24.748;2023-08-17T03:46:14;99515.50;;;25.03;54.30
18527;BME280;9393;42.158;24.748;2023-08-17T03:49:18;99520.13;;;25.07;54.23
18527;BME280;9393;42.158;24.748;2023-08-17T03:52:26;99523.16;;;25.39;53.54
18527;BME280;9393;42.158;24.748;2023-08-17T03:55:30;99515.63;;;25.36;54.77
18527;BME280;9393;42.158;24.748;2023-08-17T03:58:35;99516.31;;;25.32;55.32
18527;BME280;9393;42.158;24.748;2023-08-17T04:01:42;99512.84;;;25.31;nan
18527;BME280;9393;42.158;24.748;2023-08-17T04:04:51;99518.38;;;25.41;55.98
18527;BME280;9393;42.158;24.748;2023-08-17T04:07:58;99524.94;;;25.62;55.16
18527;BME280;9393;42.158;24.748;2023-08-17T04:11:05;99521.19;;;26.08;53.80
18527;BME280;9393;42.158;24.748;2023-08-17T04:14:11;99520.09;;;26.21;53.61
18527;BME280;9393;42.158;24.748;2023-08-17T04:17:24;99522.34;;;26.29;53.28
18527;BME280;9393;42.158;24.748;2023-08-17T04:20:29;99522.59;;;26.27;53.39
18527;BME280;9393;42.158;24.748;2023-08-17T04:23:33;99520.41;;;26.24;53.72
18527;BME280;9393;42.158;24.748;2023-08-17T04:26:39;99515.97;;;26.30;54.04
18527;BME280;9393;42.158;24.748;2023-08-17T04:29:45;99525.19;;;26.22;54.25
18527;BME280;9393;42.158;24.748;2023-08-17T04:32:50;99521.69;;;26.38;54.22
18527;BME280;9393;42.158;24.748;2023-08-17T04:35:57;99519.03;;;26.38;54.72
18527;BME280;9393;42.158;24.748;2023-08-17T04:39:03;99518.88;;;26.28;55.19
18527;BME280;9393;42.158;24.748;2023-08-17T04:42:08;99520.97;;;26.43;54.72
18527;BME280;9393;42.158;24.748;2023-08-17T04:45:13;99524.84;;;26.52;54.63
18527;BME280;9393;42.158;24.748;2023-08-17T04:48:19;99525.25;;;26.60;54.58
18527;BME280;9393;42.158;24.748;2023-08-17T04:51:24;99524.66;;;26.58;54.42
18527;BME280;9393;42.158;24.748;2023-08-17T04:54:28;99521.16;;;26.20;55.50
18527;BME280;9393;42.158;24.748;2023-08-17T04:57:37;99521.66;;;26.88;53.80
18527;BME280;9393;42.158;24.748;2023-08-17T05:00:47;99526.66;;;27.06;53.14
18527;BME280;9393;42.158;24.748;2023-08-17T05:03:54;99527.56;;;27.12;53.27
18527;BME280;9393;42.158;24.748;2023-08-17T05:06:59;99522.63;;;27.26;52.89
18527;BME280;9393;42.158;24.748;2023-08-17T05:10:08;99522.44;;;27.54;51.67
18527;BME280;9393;42.158;24.748;2023-08-17T05:13:14;99526.69;;;27.77;51.54
18527;BME280;9393;42.158;24.748;2023-08-17T05:16:20;99525.66;;;27.83;51.50
18527;BME280;9393;42.158;24.748;2023-08-17T05:19:25;99528.59;;;28.08;50.73
18527;BME280;9393;42.158;24.748;2023-08-17T05:22:30;99528.09;;;28.11;51.05
18527;BME280;9393;42.158;24.748;2023-08-17T05:25:34;99532.94;;;28.14;50.58
18527;BME280;9393;42.158;24.748;2023-08-17T05:28:38;99537.19;;;27.83;52.02
18527;BME280;9393;42.158;24.748;2023-08-17T05:31:54;99527.44;;;27.72;51.77
18527;BME280;9393;42.158;24.748;2023-08-17T05:35:01;99534.00;;;28.13;50.71
18527;BME280;9393;42.158;24.748;2023-08-17T05:38:16;99529.03;;;28.32;50.26
18527;BME280;9393;42.158;24.748;2023-08-17T05:41:23;99527.06;;;28.54;49.91
18527;BME280;9393;42.158;24.748;2023-08-17T05:44:30;99526.66;;;28.35;50.09
18527;BME280;9393;42.158;24.748;2023-08-17T05:47:36;99535.59;;;28.46;50.05
18527;BME280;9393;42.158;24.748;2023-08-17T05:50:47;99529.03;;;28.27;50.41
18527;BME280;9393;42.158;24.748;2023-08-17T05:53:54;99523.47;;;28.75;50.01
18527;BME280;9393;42.158;24.748;2023-08-17T05:56:58;99528.75;;;29.22;48.25
18527;BME280;9393;42.158;24.748;2023-08-17T06:00:03;99525.09;;;29.43;47.76
18527;BME280;9393;42.158;24.748;2023-08-17T06:03:15;99524.78;;;29.30;48.34
18527;BME280;9393;42.158;24.748;2023-08-17T06:06:19;99525.91;;;29.49;47.72
18527;BME280;9393;42.158;24.748;2023-08-17T06:09:25;99523.00;;;29.76;47.15
18527;BME280;9393;42.158;24.748;2023-08-17T06:12:29;99520.91;;;30.08;46.62
18527;BME280;9393;42.158;24.748;2023-08-17T06:15:36;99518.75;;;30.10;46.42
18527;BME280;9393;42.158;24.748;2023-08-17T06:18:42;99517.94;;;30.30;46.32
18527;BME280;9393;42.158;24.748;2023-08-17T06:21:46;99524.97;;;30.41;46.17
18527;BME280;9393;42.158;24.748;2023-08-17T06:24:50;99516.88;;;30.05;46.24
18527;BME280;9393;42.158;24.748;2023-08-17T06:27:54;99520.91;;;29.98;46.62
18527;BME280;9393;42.158;24.748;2023-08-17T06:30:58;99518.75;;;30.20;46.10
18527;BME280;9393;42.158;24.748;2023-08-17T06:34:04;99522.78;;;30.33;45.24
18527;BME280;9393;42.158;24.748;2023-08-17T06:37:10;99523.03;;;30.51;45.28
18527;BME280;9393;42.158;24.748;2023-08-17T06:40:20;99531.38;;;30.45;45.16
18527;BME280;9393;42.158;24.748;2023-08-17T06:43:27;99525.19;;;30.65;45.17
18527;BME280;9393;42.158;24.748;2023-08-17T06:46:31;99526.47;;;30.82;44.69
18527;BME280;9393;42.158;24.748;2023-08-17T06:49:37;99522.13;;;30.86;44.76
18527;BME280;9393;42.158;24.748;2023-08-17T06:52:41;99518.38;;;31.46;43.89
18527;BME280;9393;42.158;24.748;2023-08-17T06:55:45;99520.59;;;31.83;42.55
18527;BME280;9393;42.158;24.748;2023-08-17T06:58:50;99520.41;;;31.75;41.98
18527;BME280;9393;42.158;24.748;2023-08-17T07:01:58;99520.63;;;31.78;42.23
18527;BME280;9393;42.158;24.748;2023-08-17T07:05:06;99524.75;;;31.66;41.85
18527;BME280;9393;42.158;24.748;2023-08-17T07:08:11;99514.28;;;31.59;41.57
18527;BME280;9393;42.158;24.748;2023-08-17T07:11:15;99512.97;;;31.90;41.24
18527;BME280;9393;42.158;24.748;2023-08-17T07:14:20;99510.94;;;32.11;40.09
18527;BME280;9393;42.158;24.748;2023-08-17T07:17:24;99514.94;;;32.19;40.87
18527;BME280;9393;42.158;24.748;2023-08-17T07:20:31;99523.81;;;32.48;40.52
18527;BME280;9393;42.158;24.748;2023-08-17T07:23:35;99518.53;;;32.90;39.94
18527;BME280;9393;42.158;24.748;2023-08-17T07:26:39;99517.22;;;33.07;39.18
18527;BME280;9393;42.158;24.748;2023-08-17T07:29:43;99522.09;;;33.10;38.59
18527;BME280;9393;42.158;24.748;2023-08-17T07:32:47;99521.63;;;33.26;38.87
18527;BME280;9393;42.158;24.748;2023-08-17T07:35:54;99517.19;;;33.54;37.49
18527;BME280;9393;42.158;24.748;2023-08-17T07:39:00;99526.09;;;33.73;37.32
18527;BME280;9393;42.158;24.748;2023-08-17T07:42:06;99523.13;;;33.75;37.24
18527;BME280;9393;42.158;24.748;2023-08-17T07:45:11;99520.69;;;33.92;35.44
18527;BME280;9393;42.158;24.748;2023-08-17T07:48:16;99527.91;;;34.15;35.19
18527;BME280;9393;42.158;24.748;2023-08-17T07:51:21;99516.97;;;33.88;34.71
18527;BME280;9393;42.158;24.748;2023-08-17T07:54:25;99515.09;;;34.34;35.44
18527;BME280;9393;42.158;24.748;2023-08-17T07:57:30;99513.53;;;34.61;34.28
18527;BME280;9393;42.158;24.748;2023-08-17T08:00:37;99520.09;;;34.27;34.75
18527;BME280;9393;42.158;24.748;2023-08-17T08:03:45;99508.56;;;34.22;34.79
18527;BME280;9393;42.158;24.748;2023-08-17T08:06:57;99510.31;;;34.59;34.95
18527;BME280;9393;42.158;24.748;2023-08-17T08:10:01;99511.97;;;34.27;35.28
18527;BME280;9393;42.158;24.748;2023-08-17T08:13:05;99503.34;;;34.85;34.48
18527;BME280;9393;42.158;24.748;2023-08-17T08:16:10;99504.22;;;34.94;33.27
18527;BME280;9393;42.158;24.748;2023-08-17T08:19:16;99504.03;;;34.90;33.71
18527;BME280;9393;42.158;24.748;2023-08-17T08:22:22;99507.91;;;34.57;34.96
18527;BME280;9393;42.158;24.748;2023-08-17T08:25:26;99503.16;;;34.35;34.87
18527;BME280;9393;42.158;24.748;2023-08-17T08:28:31;99504.66;;;34.28;33.88
18527;BME280;9393;42.158;24.748;2023-08-17T08:31:37;99496.41;;;34.65;34.43
18527;BME280;9393;42.158;24.748;2023-08-17T08:34:42;99493.50;;;34.89;33.95
18527;BME280;9393;42.158;24.748;2023-08-17T08:37:51;99490.47;;;35.18;33.47
18527;BME280;9393;42.158;24.748;2023-08-17T08:40:55;99489.84;;;35.57;33.10
18527;BME280;9393;42.158;24.748;2023-08-17T08:44:01;99478.59;;;35.27;33.26
18527;BME280;9393;42.158;24.748;2023-08-17T08:47:06;99486.94;;;35.53;33.61
18527;BME280;9393;42.158;24.748;2023-08-17T08:50:14;99480.91;;;35.07;33.56
18527;BME280;9393;42.158;24.748;2023-08-17T08:53:28;99473.53;;;34.85;33.77
18527;BME280;9393;42.158;24.748;2023-08-17T08:56:42;99473.00;;;34.83;33.82
18527;BME280;9393;42.158;24.748;2023-08-17T08:59:51;99470.53;;;35.36;32.86
18527;BME280;9393;42.158;24.748;2023-08-17T09:03:03;99457.31;;;35.21;32.79
18527;BME280;9393;42.158;24.748;2023-08-17T09:06:11;99457.50;;;35.24;33.12
18527;BME280;9393;42.158;24.748;2023-08-17T09:09:18;99459.44;;;35.46;32.89
18527;BME280;9393;42.158;24.748;2023-08-17T09:12:24;99461.44;;;35.76;32.28
18527;BME280;9393;42.158;24.748;2023-08-17T09:15:42;99458.44;;;35.78;32.72
18527;BME280;9393;42.158;24.748;2023-08-17T09:18:49;99459.09;;;35.83;32.02
18527;BME280;9393;42.158;24.748;2023-08-17T09:21:57;99453.31;;;35.76;32.08
18527;BME280;9393;42.158;24.748;2023-08-17T09:25:22;99454.69;;;35.52;32.45
18527;BME280;9393;42.158;24.748;2023-08-17T09:28:27;99453.31;;;35.54;32.45
18527;BME280;9393;42.158;24.748;2023-08-17T09:31:34;99454.38;;;35.89;31.72
18527;BME280;9393;42.158;24.748;2023-08-17T09:34:41;99457.59;;;35.55;32.40
18527;BME280;9393;42.158;24.748;2023-08-17T09:37:50;99454.59;;;36.23;31.37
18527;BME280;9393;42.158;24.748;2023-08-17T09:40:57;99451.34;;;36.21;31.87
18527;BME280;9393;42.158;24.748;2023-08-17T09:44:02;99452.69;;;36.32;31.13
18527;BME280;9393;42.158;24.748;2023-08-17T09:47:07;99447.44;;;36.36;31.16
18527;BME280;9393;42.158;24.748;2023-08-17T09:50:11;99436.38;;;35.71;31.60
18527;BME280;9393;42.158;24.748;2023-08-17T09:53:21;99438.47;;;36.05;31.90
18527;BME280;9393;42.158;24.748;2023-08-17T09:56:27;99428.53;;;36.22;31.90
18527;BME280;9393;42.158;24.748;2023-08-17T09:59:40;99428.16;;;35.62;31.83
18527;BME280;9393;42.158;24.748;2023-08-17T10:02:53;99422.66;;;35.54;32.69
18527;BME280;9393;42.158;24.748;2023-08-17T10:06:01;99426.63;;;36.23;31.88
18527;BME280;9393;42.158;24.748;2023-08-17T10:09:07;99422.94;;;36.58;30.82
18527;BME280;9393;42.158;24.748;2023-08-17T10:12:19;99417.72;;;36.79;30.47
18527;BME280;9393;42.158;24.748;2023-08-17T10:15:25;99418.31;;;36.67;30.69
18527;BME280;9393;42.158;24.748;2023-08-17T10:18:37;99409.03;;;35.45;32.00
18527;BME280;9393;42.158;24.748;2023-08-17T10:21:48;99408.53;;;36.18;30.85
18527;BME280;9393;42.158;24.748;2023-08-17T10:24:54;99406.75;;;36.14;30.58
18527;BME280;9393;42.158;24.748;2023-08-17T10:28:02;99400.06;;;36.11;30.70
18527;BME280;9393;42.158;24.748;2023-08-17T10:31:09;99393.94;;;36.45;30.24
18527;BME280;9393;42.158;24.748;2023-08-17T10:34:21;99400.75;;;36.25;30.60
18527;BME280;9393;42.158;24.748;2023-08-17T10:37:33;99399.72;;;36.52;31.05
18527;BME280;9393;42.158;24.748;2023-08-17T10:40:41;99387.22;;;36.34;29.95
18527;BME280;9393;42.158;24.748;2023-08-17T10:44:00;99387.81;;;36.00;30.20
18527;BME280;9393;42.158;24.748;2023-08-17T10:47:21;99377.41;;;36.16;29.84
18527;BME280;9393;42.158;24.748;2023-08-17T10:50:26;99378.56;;;35.92;30.22
18527;BME280;9393;42.158;24.748;2023-08-17T10:53:37;99372.88;;;36.51;29.17
18527;BME280;9393;42.158;24.748;2023-08-17T10:56:48;99374.16;;;36.53;29.02
18527;BME280;9393;42.158;24.748;2023-08-17T11:00:16;99374.50;;;36.69;28.84
18527;BME280;9393;42.158;24.748;2023-08-17T11:03:23;99368.97;;;37.08;28.95
18527;BME280;9393;42.158;24.748;2023-08-17T11:06:31;99375.72;;;36.45;29.67
18527;BME280;9393;42.158;24.748;2023-08-17T11:09:37;99366.09;;;36.79;29.26
18527;BME280;9393;42.158;24.748;2023-08-17T11:12:46;99363.72;;;36.29;28.50
18527;BME280;9393;42.158;24.748;2023-08-17T11:16:02;99350.41;;;36.67;28.26
18527;BME280;9393;42.158;24.748;2023-08-17T11:19:13;99359.59;;;36.40;28.99
18527;BME280;9393;42.158;24.748;2023-08-17T11:22:17;99344.78;;;36.55;27.77
18527;BME280;9393;42.158;24.748;2023-08-17T11:25:31;99338.25;;;36.73;27.42
18527;BME280;9393;42.158;24.748;2023-08-17T11:28:41;99335.69;;;36.77;28.02
18527;BME280;9393;42.158;24.748;2023-08-17T11:31:52;99339.38;;;36.89;27.08
18527;BME280;9393;42.158;24.748;2023-08-17T11:34:59;99340.50;;;36.80;27.28
18527;BME280;9393;42.158;24.748;2023-08-17T11:38:07;99332.56;;;36.27;27.28
18527;BME280;9393;42.158;24.748;2023-08-17T11:41:14;99322.56;;;36.62;27.23
18527;BME280;9393;42.158;24.748;2023-08-17T11:44:20;99321.25;;;36.51;27.49
18527;BME280;9393;42.158;24.748;2023-08-17T11:47:29;99315.50;;;36.52;27.19
18527;BME280;9393;42.158;24.748;2023-08-17T11:50:40;99316.44;;;36.39;27.02
18527;BME280;9393;42.158;24.748;2023-08-17T11:53:48;99304.22;;;36.67;26.67
18527;BME280;9393;42.158;24.748;2023-08-17T11:56:52;99310.94;;;37.13;26.56
18527;BME280;9393;42.158;24.748;2023-08-17T12:00:00;99308.22;;;36.95;27.42
18527;BME280;9393;42.158;24.748;2023-08-17T12:03:07;99302.13;;;37.16;26.91
18527;BME280;9393;42.158;24.748;2023-08-17T12:06:18;99298.44;;;37.12;26.86
18527;BME280;9393;42.158;24.748;2023-08-17T12:09:27;99310.28;;;36.81;26.55
18527;BME280;9393;42.158;24.748;2023-08-17T12:12:37;99288.38;;;37.04;26.80
18527;BME280;9393;42.158;24.748;2023-08-17T12:15:47;99285.63;;;37.21;26.30
18527;BME280;9393;42.158;24.748;2023-08-17T12:18:54;99278.31;;;36.70;26.09
18527;BME280;9393;42.158;24.748;2023-08-17T12:22:02;99274.78;;;36.69;25.69
18527;BME280;9393;42.158;24.748;2023-08-17T12:25:10;99263.25;;;36.89;25.03
18527;BME280;9393;42.158;24.748;2023-08-17T12:28:17;99257.50;;;36.82;25.07
18527;BME280;9393;42.158;24.748;2023-08-17T12:31:24;99270.31;;;36.73;25.06
18527;BME280;9393;42.158;24.748;2023-08-17T12:34:30;99254.97;;;36.60;25.51
18527;BME280;9393;42.158;24.748;2023-08-17T12:37:37;99253.38;;;36.76;26.03
18527;BME280;9393;42.158;24.748;2023-08-17T12:40:41;99266.31;;;36.79;26.61
18527;BME280;9393;42.158;24.748;2023-08-17T12:43:50;99252.25;;;36.60;26.12
18527;BME280;9393;42.158;24.748;2023-08-17T12:46:58;99248.75;;;36.68;26.41
18527;BME280;9393;42.158;24.748;2023-08-17T12:50:06;99244.41;;;36.84;26.25
18527;BME280;9393;42.158;24.748;2023-08-17T12:53:12;99250.66;;;36.85;26.04
18527;BME280;9393;42.158;24.748;2023-08-17T12:56:18;99252.09;;;37.00;25.66
18527;BME280;9393;42.158;24.748;2023-08-17T12:59:27;99250.78;;;36.97;25.62
18527;BME280;9393;42.158;24.748;2023-08-17T13:02:31;99254.09;;;37.28;25.48
18527;BME280;9393;42.158;24.748;2023-08-17T13:05:37;99256.56;;;36.95;25.95
18527;BME280;9393;42.158;24.748;2023-08-17T13:08:42;99255.75;;;37.04;25.61
18527;BME280;9393;42.158;24.748;2023-08-17T13:11:47;99249.19;;;36.53;26.44
18527;BME280;9393;42.158;24.748;2023-08-17T13:14:54;99252.56;;;36.50;26.58
18527;BME280;9393;42.158;24.748;2023-08-17T13:18:07;99240.88;;;36.32;26.86
18527;BME280;9393;42.158;24.748;2023-08-17T13:21:17;99245.00;;;36.13;27.28
18527;BME280;9393;42.158;24.748;2023-08-17T13:24:30;99238.91;;;36.07;28.24
18527;BME280;9393;42.158;24.748;2023-08-17T13:27:34;99240.41;;;36.39;27.91
18527;BME280;9393;42.158;24.748;2023-08-17T13:30:44;99246.84;;;36.60;27.60
18527;BME280;9393;42.158;24.748;2023-08-17T13:33:48;99242.19;;;36.69;27.57
18527;BME280;9393;42.158;24.748;2023-08-17T13:36:58;99242.00;;;36.23;27.95
18527;BME280;9393;42.158;24.748;2023-08-17T13:40:16;99234.97;;;36.39;27.74
18527;BME280;9393;42.158;24.748;2023-08-17T13:43:22;99242.13;;;36.18;28.63
18527;BME280;9393;42.158;24.748;2023-08-17T13:46:29;99241.03;;;36.36;28.03
18527;BME280;9393;42.158;24.748;2023-08-17T13:49:35;99235.94;;;36.86;27.61
18527;BME280;9393;42.158;24.748;2023-08-17T13:52:43;99243.59;;;36.50;28.16
18527;BME280;9393;42.158;24.748;2023-08-17T13:55:49;99240.09;;;36.40;28.28
18527;BME280;9393;42.158;24.748;2023-08-17T13:58:53;99234.66;;;36.83;28.29
18527;BME280;9393;42.158;24.748;2023-08-17T14:02:04;99234.97;;;37.08;28.05
18527;BME280;9393;42.158;24.748;2023-08-17T14:05:10;99237.88;;;36.77;28.31
18527;BME280;9393;42.158;24.748;2023-08-17T14:08:25;99223.78;;;36.23;29.16
18527;BME280;9393;42.158;24.748;2023-08-17T14:11:29;99224.34;;;36.03;29.96
18527;BME280;9393;42.158;24.748;2023-08-17T14:14:37;99231.91;;;36.15;28.88
18527;BME280;9393;42.158;24.748;2023-08-17T14:17:41;99238.16;;;36.50;28.87
18527;BME280;9393;42.158;24.748;2023-08-17T14:20:48;99237.88;;;36.68;28.92
18527;BME280;9393;42.158;24.748;2023-08-17T14:24:01;99233.50;;;36.24;29.26
18527;BME280;9393;42.158;24.748;2023-08-17T14:27:07;99231.56;;;36.08;29.25
18527;BME280;9393;42.158;24.748;2023-08-17T14:30:19;99229.38;;;36.10;29.61
18527;BME280;9393;42.158;24.748;2023-08-17T14:33:30;99227.94;;;36.29;29.05
18527;BME280;9393;42.158;24.748;2023-08-17T14:36:35;99227.94;;;36.46;29.27
18527;BME280;9393;42.158;24.748;2023-08-17T14:39:41;99229.53;;;36.13;29.53
18527;BME280;9393;42.158;24.748;2023-08-17T14:42:46;99229.38;;;36.10;29.62
18527;BME280;9393;42.158;24.748;2023-08-17T14:45:59;99233.28;;;36.04;30.24
18527;BME280;9393;42.158;24.748;2023-08-17T14:49:05;99229.69;;;36.17;29.95
18527;BME280;9393;42.158;24.748;2023-08-17T14:52:09;99233.13;;;36.00;30.11
18527;BME280;9393;42.158;24.748;2023-08-17T14:55:16;99233.69;;;36.36;30.31
18527;BME280;9393;42.158;24.748;2023-08-17T14:58:20;99227.28;;;36.41;30.62
18527;BME280;9393;42.158;24.748;2023-08-17T15:01:25;99234.50;;;36.37;31.27
18527;BME280;9393;42.158;24.748;2023-08-17T15:04:29;99234.81;;;36.27;30.77
18527;BME280;9393;42.158;24.748;2023-08-17T15:07:36;99236.91;;;36.30;30.86
18527;BME280;9393;42.158;24.748;2023-08-17T15:10:46;99228.59;;;36.26;31.18
18527;BME280;9393;42.158;24.748;2023-08-17T15:13:51;99227.59;;;36.14;31.09
18527;BME280;9393;42.158;24.748;2023-08-17T15:17:08;99236.56;;;36.40;30.80
18527;BME280;9393;42.158;24.748;2023-08-17T15:20:24;99225.19;;;36.21;31.05
18527;BME280;9393;42.158;24.748;2023-08-17T15:23:33;99245.03;;;36.30;31.18
18527;BME280;9393;42.158;24.748;2023-08-17T15:26:48;99231.34;;;35.87;31.02
18527;BME280;9393;42.158;24.748;2023-08-17T15:30:00;99224.25;;;35.69;31.50
18527;BME280;9393;42.158;24.748;2023-08-17T15:33:09;99228.56;;;36.09;31.26
18527;BME280;9393;42.158;24.748;2023-08-17T15:36:14;99225.69;;;36.23;31.11
18527;BME280;9393;42.158;24.748;2023-08-17T15:39:26;99210.94;;;35.98;31.71
18527;BME280;9393;42.158;24.748;2023-08-17T15:42:39;99225.47;;;36.02;31.43
18527;BME280;9393;42.158;24.748;2023-08-17T15:45:51;99228.44;;;35.75;31.89
18527;BME280;9393;42.158;24.748;2023-08-17T15:49:02;99224.50;;;35.59;32.24
18527;BME280;9393;42.158;24.748;2023-08-17T15:52:11;99219.28;;;35.62;32.00
18527;BME280;9393;42.158;24.748;2023-08-17T15:55:17;99220.59;;;35.65;32.44
18527;BME280;9393;42.158;24.748;2023-08-17T15:58:23;99217.25;;;35.37;32.87
18527;BME280;9393;42.158;24.748;2023-08-17T16:01:28;99212.47;;;35.34;33.46
18527;BME280;9393;42.158;24.748;2023-08-17T16:04:32;99212.72;;;35.24;33.16
18527;BME280;9393;42.158;24.748;2023-08-17T16:07:44;99220.00;;;35.15;33.41
18527;BME280;9393;42.158;24.748;2023-08-17T16:10:51;99213.34;;;35.21;33.37
18527;BME280;9393;42.158;24.748;2023-08-17T16:14:01;99224.50;;;34.97;33.63
18527;BME280;9393;42.158;24.748;2023-08-17T16:17:10;99231.84;;;34.74;34.61
18527;BME280;9393;42.158;24.748;2023-08-17T16:20:14;99234.06;;;34.59;34.41
18527;BME280;9393;42.158;24.748;2023-08-17T16:23:27;99236.44;;;34.74;34.63
18527;BME280;9393;42.158;24.748;2023-08-17T16:26:34;99235.47;;;34.70;34.59
18527;BME280;9393;42.158;24.748;2023-08-17T16:29:40;99241.09;;;34.60;34.90
18527;BME280;9393;42.158;24.748;2023-08-17T16:32:51;99241.31;;;34.49;35.12